sensor_id;sensor_type;location;lat;lon;timestamp;temperature;humidity
12481;DHT22;6305;48.398;11.762;2023-09-30T00:01:58;14.50;99.90
12481;DHT22;6305;48.398;11.762;2023-09-30T00:04:25;14.40;99.90
12481;DHT22;6305;48.398;11.762;2023-09-30T00:06:54;14.40;99.90
12481;DHT22;6305;48.398;11.762;2023-09-30T00:09:21;14.30;99.90
12481;DHT22;6305;48.398;11.762;2023-09-30T00:11:48;14.20;99.90
12481;DHT22;6305;48.398;11.762;2023-09-30T00:14:16;14.10;99.90
12481;DHT22;6305;48.398;11.762;2023-09-30T00:16:43;14.10;99.90
12481;DHT22;6305;48.398;11.762;2023-09-30T00:19:11;14.00;99.90
12481;DHT22;6305;48.398;11.762;2023-09-30T00:21:39;14.00;99.90
12481;DHT22;6305;48.398;11.762;2023-09-30T00:24:08;13.90;99.90
12481;DHT22;6305;48.398;11.762;2023-09-30T00:26:37;13.80;99.90
12481;DHT22;6305;48.398;11.762;2023-09-30T00:29:04;13.80;99.90
12481;DHT22;6305;48.398;11.762;2023-09-30T00:31:31;13.70;99.90
12481;DHT22;6305;48.398;11.762;2023-09-30T00:33:59;13.70;99.90
12481;DHT22;6305;48.398;11.762;2023-09-30T00:36:26;13.60;99.90
12481;DHT22;6305;48.398;11.762;2023-09-30T00:38:53;13.50;99.90
12481;DHT22;6305;48.398;11.762;2023-09-30T00:41:21;13.50;99.90
12481;DHT22;6305;48.398;11.762;2023-09-30T00:43:48;13.40;99.90
12481;DHT22;6305;48.398;11.762;2023-09-30T00:46:26;13.40;99.90
12481;DHT22;6305;48.398;11.762;2023-09-30T00:48:56;13.30;99.90
12481;DHT22;6305;48.398;11.762;2023-09-30T00:51:24;13.20;99.90
12481;DHT22;6305;48.398;11.762;2023-09-30T00:53:52;13.20;99.90
12481;DHT22;6305;48.398;11.762;2023-09-30T00:56:24;13.10;99.90
12481;DHT22;6305;48.398;11.762;2023-09-30T00:58:52;13.10;99.90
12481;DHT22;6305;48.398;11.762;2023-09-30T01:01:19;13.00;99.90
12481;DHT22;6305;48.398;11.762;2023-09-30T01:03:47;13.00;99.90
12481;DHT22;6305;48.398;11.762;2023-09-30T01:06:15;13.00;99.90
12481;DHT22;6305;48.398;11.762;2023-09-30T01:08:41;13.00;99.90
12481;DHT22;6305;48.398;11.762;2023-09-30T01:11:09;13.00;99.90
12481;DHT22;6305;48.398;11.762;2023-09-30T01:13:37;13.00;99.90
12481;DHT22;6305;48.398;11.762;2023-09-30T01:16:05;13.10;99.90
12481;DHT22;6305;48.398;11.762;2023-09-30T01:18:35;13.10;99.90
12481;DHT22;6305;48.398;11.762;2023-09-30T01:21:04;13.10;99.90
12481;DHT22;6305;48.398;11.762;2023-09-30T01:23:33;13.30;99.90
12481;DHT22;6305;48.398;11.762;2023-09-30T01:26:02;13.40;99.90
12481;DHT22;6305;48.398;11.762;2023-09-30T01:28:30;13.50;99.90
12481;DHT22;6305;48.398;11.762;2023-09-30T01:30:57;13.60;99.90
12481;DHT22;6305;48.398;11.762;2023-09-30T01:33:24;13.80;99.90
12481;DHT22;6305;48.398;11.762;2023-09-30T01:35:51;13.80;99.90
12481;DHT22;6305;48.398;11.762;2023-09-30T01:38:19;13.90;99.90
12481;DHT22;6305;48.398;11.762;2023-09-30T01:40:47;13.90;99.90
12481;DHT22;6305;48.398;11.762;2023-09-30T01:43:15;14.00;99.90
12481;DHT22;6305;48.398;11.762;2023-09-30T01:45:42;14.00;99.90
12481;DHT22;6305;48.398;11.762;2023-09-30T01:48:10;14.10;99.90
12481;DHT22;6305;48.398;11.762;2023-09-30T01:50:37;14.20;99.90
12481;DHT22;6305;48.398;11.762;2023-09-30T01:53:04;14.30;99.90
12481;DHT22;6305;48.398;11.762;2023-09-30T01:55:32;14.50;99.90
12481;DHT22;6305;48.398;11.762;2023-09-30T01:58:00;14.50;99.90
12481;DHT22;6305;48.398;11.762;2023-09-30T02:00:28;14.60;99.90
12481;DHT22;6305;48.398;11.762;2023-09-30T02:02:56;14.60;99.90
12481;DHT22;6305;48.398;11.762;2023-09-30T02:05:25;14.60;99.90
12481;DHT22;6305;48.398;11.762;2023-09-30T02:07:52;14.70;99.90
12481;DHT22;6305;48.398;11.762;2023-09-30T02:10:20;14.60;99.90
12481;DHT22;6305;48.398;11.762;2023-09-30T02:12:48;14.70;99.90
12481;DHT22;6305;48.398;11.762;2023-09-30T02:15:16;14.60;99.90
12481;DHT22;6305;48.398;11.762;2023-09-30T02:17:43;14.60;99.90
12481;DHT22;6305;48.398;11.762;2023-09-30T02:20:14;14.50;99.90
12481;DHT22;6305;48.398;11.762;2023-09-30T02:22:45;14.50;99.90
12481;DHT22;6305;48.398;11.762;2023-09-30T02:25:13;14.40;99.90
12481;DHT22;6305;48.398;11.762;2023-09-30T02:27:41;14.40;99.90
12481;DHT22;6305;48.398;11.762;2023-09-30T02:30:10;14.40;99.90
12481;DHT22;6305;48.398;11.762;2023-09-30T02:32:39;14.40;99.90
12481;DHT22;6305;48.398;11.762;2023-09-30T02:35:08;14.30;99.90
12481;DHT22;6305;48.398;11.762;2023-09-30T02:37:36;14.30;99.90
12481;DHT22;6305;48.398;11.762;2023-09-30T02:40:05;14.40;99.90
12481;DHT22;6305;48.398;11.762;2023-09-30T02:42:35;14.40;99.90
12481;DHT22;6305;48.398;11.762;2023-09-30T02:45:03;14.40;99.90
12481;DHT22;6305;48.398;11.762;2023-09-30T02:47:31;14.50;99.90
12481;DHT22;6305;48.398;11.762;2023-09-30T02:50:00;14.50;99.90
12481;DHT22;6305;48.398;11.762;2023-09-30T02:52:28;14.50;99.90
12481;DHT22;6305;48.398;11.762;2023-09-30T02:54:55;14.50;99.90
12481;DHT22;6305;48.398;11.762;2023-09-30T02:57:23;14.50;99.90
12481;DHT22;6305;48.398;11.762;2023-09-30T02:59:51;14.50;99.90
12481;DHT22;6305;48.398;11.762;2023-09-30T03:02:20;14.50;99.90
12481;DHT22;6305;48.398;11.762;2023-09-30T03:04:50;14.60;99.90
12481;DHT22;6305;48.398;11.762;2023-09-30T03:07:20;14.60;99.90
12481;DHT22;6305;48.398;11.762;2023-09-30T03:09:48;14.50;99.90
12481;DHT22;6305;48.398;11.762;2023-09-30T03:12:16;14.40;99.90
12481;DHT22;6305;48.398;11.762;2023-09-30T03:14:43;14.30;99.90
12481;DHT22;6305;48.398;11.762;2023-09-30T03:17:10;14.20;99.90
12481;DHT22;6305;48.398;11.762;2023-09-30T03:19:37;14.10;99.90
12481;DHT22;6305;48.398;11.762;2023-09-30T03:22:05;14.00;99.90
12481;DHT22;6305;48.398;11.762;2023-09-30T03:24:33;14.00;99.90
12481;DHT22;6305;48.398;11.762;2023-09-30T03:27:00;14.00;99.90
12481;DHT22;6305;48.398;11.762;2023-09-30T03:29:27;14.00;99.90
12481;DHT22;6305;48.398;11.762;2023-09-30T03:31:54;13.90;99.90
12481;DHT22;6305;48.398;11.762;2023-09-30T03:34:22;13.90;99.90
12481;DHT22;6305;48.398;11.762;2023-09-30T03:36:49;13.90;99.90
12481;DHT22;6305;48.398;11.762;2023-09-30T03:39:15;13.90;99.90
12481;DHT22;6305;48.398;11.762;2023-09-30T03:41:54;13.90;99.90
12481;DHT22;6305;48.398;11.762;2023-09-30T03:44:21;13.90;99.90
12481;DHT22;6305;48.398;11.762;2023-09-30T03:46:50;13.90;99.90
12481;DHT22;6305;48.398;11.762;2023-09-30T03:49:18;13.90;99.90
12481;DHT22;6305;48.398;11.762;2023-09-30T03:51:46;14.00;99.90
12481;DHT22;6305;48.398;11.762;2023-09-30T03:54:13;14.00;99.90
12481;DHT22;6305;48.398;11.762;2023-09-30T03:56:40;14.10;99.90
12481;DHT22;6305;48.398;11.762;2023-09-30T03:59:08;14.10;99.90
12481;DHT22;6305;48.398;11.762;2023-09-30T04:01:35;14.20;99.90
12481;DHT22;6305;48.398;11.762;2023-09-30T04:04:06;14.30;99.90
12481;DHT22;6305;48.398;11.762;2023-09-30T04:06:33;14.40;99.90
12481;DHT22;6305;48.398;11.762;2023-09-30T04:09:04;14.40;99.90
12481;DHT22;6305;48.398;11.762;2023-09-30T04:11:35;14.50;99.90
12481;DHT22;6305;48.398;11.762;2023-09-30T04:14:03;14.50;99.90
12481;DHT22;6305;48.398;11.762;2023-09-30T04:16:32;14.50;99.90
12481;DHT22;6305;48.398;11.762;2023-09-30T04:18:59;14.50;99.90
12481;DHT22;6305;48.398;11.762;2023-09-30T04:21:26;14.50;99.90
12481;DHT22;6305;48.398;11.762;2023-09-30T04:23:55;14.50;99.90
12481;DHT22;6305;48.398;11.762;2023-09-30T04:26:22;14.50;99.90
12481;DHT22;6305;48.398;11.762;2023-09-30T04:28:50;14.50;99.90
12481;DHT22;6305;48.398;11.762;2023-09-30T04:31:17;14.50;99.90
12481;DHT22;6305;48.398;11.762;2023-09-30T04:33:45;14.50;99.90
12481;DHT22;6305;48.398;11.762;2023-09-30T04:36:13;14.40;99.90
12481;DHT22;6305;48.398;11.762;2023-09-30T04:38:39;14.20;99.90
12481;DHT22;6305;48.398;11.762;2023-09-30T04:41:07;14.00;99.90
12481;DHT22;6305;48.398;11.762;2023-09-30T04:43:34;13.80;99.90
12481;DHT22;6305;48.398;11.762;2023-09-30T04:46:03;13.70;99.90
12481;DHT22;6305;48.398;11.762;2023-09-30T04:48:30;13.80;99.90
12481;DHT22;6305;48.398;11.762;2023-09-30T04:50:59;13.80;99.90
12481;DHT22;6305;48.398;11.762;2023-09-30T04:53:26;13.80;99.90
12481;DHT22;6305;48.398;11.762;2023-09-30T04:55:53;13.80;99.90
12481;DHT22;6305;48.398;11.762;2023-09-30T04:58:20;13.70;99.90
12481;DHT22;6305;48.398;11.762;2023-09-30T05:00:48;13.60;99.90
12481;DHT22;6305;48.398;11.762;2023-09-30T05:03:15;13.40;99.90
12481;DHT22;6305;48.398;11.762;2023-09-30T05:05:42;13.30;99.90
12481;DHT22;6305;48.398;11.762;2023-09-30T05:08:10;13.20;99.90
12481;DHT22;6305;48.398;11.762;2023-09-30T05:10:39;13.00;99.90
12481;DHT22;6305;48.398;11.762;2023-09-30T05:13:06;12.90;99.90
12481;DHT22;6305;48.398;11.762;2023-09-30T05:15:33;12.90;99.90
12481;DHT22;6305;48.398;11.762;2023-09-30T05:18:01;12.90;99.90
12481;DHT22;6305;48.398;11.762;2023-09-30T05:20:28;12.90;99.90
12481;DHT22;6305;48.398;11.762;2023-09-30T05:22:55;12.90;99.90
12481;DHT22;6305;48.398;11.762;2023-09-30T05:25:23;12.90;99.90
12481;DHT22;6305;48.398;11.762;2023-09-30T05:27:52;12.90;99.90
12481;DHT22;6305;48.398;11.762;2023-09-30T05:30:19;13.00;99.90
12481;DHT22;6305;48.398;11.762;2023-09-30T05:32:46;13.10;99.90
12481;DHT22;6305;48.398;11.762;2023-09-30T05:35:13;13.30;99.90
12481;DHT22;6305;48.398;11.762;2023-09-30T05:37:42;13.40;99.90
12481;DHT22;6305;48.398;11.762;2023-09-30T05:40:11;13.50;99.90
12481;DHT22;6305;48.398;11.762;2023-09-30T05:42:47;13.50;99.90
12481;DHT22;6305;48.398;11.762;2023-09-30T05:45:15;13.60;99.90
12481;DHT22;6305;48.398;11.762;2023-09-30T05:47:42;13.60;99.90
12481;DHT22;6305;48.398;11.762;2023-09-30T05:50:10;13.70;99.90
12481;DHT22;6305;48.398;11.762;2023-09-30T05:52:40;13.70;99.90
12481;DHT22;6305;48.398;11.762;2023-09-30T05:55:08;13.80;99.90
12481;DHT22;6305;48.398;11.762;2023-09-30T05:57:35;13.90;99.90
12481;DHT22;6305;48.398;11.762;2023-09-30T06:00:04;14.00;99.90
12481;DHT22;6305;48.398;11.762;2023-09-30T06:02:46;14.20;99.90
12481;DHT22;6305;48.398;11.762;2023-09-30T06:05:14;14.30;99.90
12481;DHT22;6305;48.398;11.762;2023-09-30T06:07:44;14.50;99.90
12481;DHT22;6305;48.398;11.762;2023-09-30T06:10:12;14.60;99.90
12481;DHT22;6305;48.398;11.762;2023-09-30T06:12:44;14.70;99.90
12481;DHT22;6305;48.398;11.762;2023-09-30T06:15:13;14.90;99.90
12481;DHT22;6305;48.398;11.762;2023-09-30T06:17:41;15.10;99.90
12481;DHT22;6305;48.398;11.762;2023-09-30T06:20:09;15.30;99.90
12481;DHT22;6305;48.398;11.762;2023-09-30T06:22:42;15.50;99.90
12481;DHT22;6305;48.398;11.762;2023-09-30T06:25:11;15.60;99.90
12481;DHT22;6305;48.398;11.762;2023-09-30T06:27:38;15.70;99.90
12481;DHT22;6305;48.398;11.762;2023-09-30T06:30:06;15.70;99.90
12481;DHT22;6305;48.398;11.762;2023-09-30T06:32:36;15.80;99.90
12481;DHT22;6305;48.398;11.762;2023-09-30T06:35:03;15.80;99.90
12481;DHT22;6305;48.398;11.762;2023-09-30T06:37:31;15.90;99.90
12481;DHT22;6305;48.398;11.762;2023-09-30T06:39:59;16.00;99.90
12481;DHT22;6305;48.398;11.762;2023-09-30T06:42:29;16.10;99.90
12481;DHT22;6305;48.398;11.762;2023-09-30T06:44:56;16.20;99.90
12481;DHT22;6305;48.398;11.762;2023-09-30T06:47:24;16.40;99.90
12481;DHT22;6305;48.398;11.762;2023-09-30T06:49:52;16.60;99.90
12481;DHT22;6305;48.398;11.762;2023-09-30T06:52:19;16.80;99.90
12481;DHT22;6305;48.398;11.762;2023-09-30T06:54:46;17.00;99.90
12481;DHT22;6305;48.398;11.762;2023-09-30T06:57:13;17.30;99.90
12481;DHT22;6305;48.398;11.762;2023-09-30T06:59:40;17.50;99.90
12481;DHT22;6305;48.398;11.762;2023-09-30T07:02:07;17.60;99.90
12481;DHT22;6305;48.398;11.762;2023-09-30T07:04:34;17.50;99.90
12481;DHT22;6305;48.398;11.762;2023-09-30T07:07:02;17.40;99.90
12481;DHT22;6305;48.398;11.762;2023-09-30T07:09:30;17.40;99.90
12481;DHT22;6305;48.398;11.762;2023-09-30T07:11:56;17.40;99.90
12481;DHT22;6305;48.398;11.762;2023-09-30T07:14:23;17.30;99.90
12481;DHT22;6305;48.398;11.762;2023-09-30T07:16:50;17.50;99.90
12481;DHT22;6305;48.398;11.762;2023-09-30T07:19:17;17.70;99.90
12481;DHT22;6305;48.398;11.762;2023-09-30T07:21:44;18.10;99.90
12481;DHT22;6305;48.398;11.762;2023-09-30T07:24:13;18.90;99.90
12481;DHT22;6305;48.398;11.762;2023-09-30T07:26:40;19.70;99.90
12481;DHT22;6305;48.398;11.762;2023-09-30T07:29:08;19.80;99.90
12481;DHT22;6305;48.398;11.762;2023-09-30T07:31:36;19.80;99.90
12481;DHT22;6305;48.398;11.762;2023-09-30T07:34:03;19.50;99.90
12481;DHT22;6305;48.398;11.762;2023-09-30T07:36:30;19.40;99.90
12481;DHT22;6305;48.398;11.762;2023-09-30T07:38:57;19.50;99.90
12481;DHT22;6305;48.398;11.762;2023-09-30T07:41:27;19.60;99.90
12481;DHT22;6305;48.398;11.762;2023-09-30T07:43:54;19.50;99.90
12481;DHT22;6305;48.398;11.762;2023-09-30T07:46:21;19.70;99.90
12481;DHT22;6305;48.398;11.762;2023-09-30T07:48:49;19.40;99.90
12481;DHT22;6305;48.398;11.762;2023-09-30T07:51:15;19.30;99.90
12481;DHT22;6305;48.398;11.762;2023-09-30T07:53:42;19.50;99.90
12481;DHT22;6305;48.398;11.762;2023-09-30T07:56:09;19.40;99.90
12481;DHT22;6305;48.398;11.762;2023-09-30T07:58:38;19.20;99.90
12481;DHT22;6305;48.398;11.762;2023-09-30T08:01:04;19.10;99.90
12481;DHT22;6305;48.398;11.762;2023-09-30T08:03:31;19.10;99.90
12481;DHT22;6305;48.398;11.762;2023-09-30T08:05:59;19.10;99.90
12481;DHT22;6305;48.398;11.762;2023-09-30T08:08:26;19.30;99.90
12481;DHT22;6305;48.398;11.762;2023-09-30T08:10:55;19.10;99.90
12481;DHT22;6305;48.398;11.762;2023-09-30T08:13:23;19.00;99.90
12481;DHT22;6305;48.398;11.762;2023-09-30T08:15:51;19.10;99.90
12481;DHT22;6305;48.398;11.762;2023-09-30T08:18:19;19.30;99.90
12481;DHT22;6305;48.398;11.762;2023-09-30T08:20:46;19.20;99.90
12481;DHT22;6305;48.398;11.762;2023-09-30T08:23:15;19.10;99.90
12481;DHT22;6305;48.398;11.762;2023-09-30T08:25:42;19.20;99.90
12481;DHT22;6305;48.398;11.762;2023-09-30T08:28:09;19.20;99.90
12481;DHT22;6305;48.398;11.762;2023-09-30T08:30:37;19.10;99.90
12481;DHT22;6305;48.398;11.762;2023-09-30T08:33:05;19.10;99.90
12481;DHT22;6305;48.398;11.762;2023-09-30T08:35:35;19.00;99.90
12481;DHT22;6305;48.398;11.762;2023-09-30T08:38:03;18.80;99.90
12481;DHT22;6305;48.398;11.762;2023-09-30T08:40:31;18.70;99.90
12481;DHT22;6305;48.398;11.762;2023-09-30T08:42:58;18.70;99.90
12481;DHT22;6305;48.398;11.762;2023-09-30T08:45:28;19.00;99.90
12481;DHT22;6305;48.398;11.762;2023-09-30T08:47:57;19.60;99.90
12481;DHT22;6305;48.398;11.762;2023-09-30T08:50:27;20.20;99.90
12481;DHT22;6305;48.398;11.762;2023-09-30T08:52:55;20.70;99.90
12481;DHT22;6305;48.398;11.762;2023-09-30T08:55:23;21.30;99.90
12481;DHT22;6305;48.398;11.762;2023-09-30T08:57:51;21.50;99.90
12481;DHT22;6305;48.398;11.762;2023-09-30T09:00:19;21.50;99.90
12481;DHT22;6305;48.398;11.762;2023-09-30T09:02:46;21.90;99.90
12481;DHT22;6305;48.398;11.762;2023-09-30T09:05:14;22.20;99.90
12481;DHT22;6305;48.398;11.762;2023-09-30T09:07:43;22.20;99.90
12481;DHT22;6305;48.398;11.762;2023-09-30T09:10:10;22.50;99.90
12481;DHT22;6305;48.398;11.762;2023-09-30T09:12:39;23.40;99.90
12481;DHT22;6305;48.398;11.762;2023-09-30T09:15:08;23.40;99.90
12481;DHT22;6305;48.398;11.762;2023-09-30T09:17:43;23.00;99.90
12481;DHT22;6305;48.398;11.762;2023-09-30T09:20:11;22.90;99.90
12481;DHT22;6305;48.398;11.762;2023-09-30T09:22:48;23.00;99.90
12481;DHT22;6305;48.398;11.762;2023-09-30T09:25:16;23.70;99.90
12481;DHT22;6305;48.398;11.762;2023-09-30T09:27:43;23.90;98.70
12481;DHT22;6305;48.398;11.762;2023-09-30T09:30:21;24.40;97.60
12481;DHT22;6305;48.398;11.762;2023-09-30T09:32:58;24.70;92.70
12481;DHT22;6305;48.398;11.762;2023-09-30T09:35:26;24.40;93.00
12481;DHT22;6305;48.398;11.762;2023-09-30T09:37:57;24.10;94.00
12481;DHT22;6305;48.398;11.762;2023-09-30T09:40:26;24.00;95.10
12481;DHT22;6305;48.398;11.762;2023-09-30T09:42:54;24.00;94.80
12481;DHT22;6305;48.398;11.762;2023-09-30T09:45:22;24.60;96.90
12481;DHT22;6305;48.398;11.762;2023-09-30T09:47:50;27.00;90.50
12481;DHT22;6305;48.398;11.762;2023-09-30T09:50:18;28.20;72.50
12481;DHT22;6305;48.398;11.762;2023-09-30T09:52:47;28.40;63.90
12481;DHT22;6305;48.398;11.762;2023-09-30T09:55:18;28.30;63.60
12481;DHT22;6305;48.398;11.762;2023-09-30T09:57:49;28.20;63.00
12481;DHT22;6305;48.398;11.762;2023-09-30T10:00:19;27.80;62.10
12481;DHT22;6305;48.398;11.762;2023-09-30T10:02:47;26.70;63.20
12481;DHT22;6305;48.398;11.762;2023-09-30T10:05:15;25.80;70.20
12481;DHT22;6305;48.398;11.762;2023-09-30T10:07:47;25.20;74.10
12481;DHT22;6305;48.398;11.762;2023-09-30T10:10:23;25.30;75.20
12481;DHT22;6305;48.398;11.762;2023-09-30T10:12:52;25.40;74.70
12481;DHT22;6305;48.398;11.762;2023-09-30T10:15:36;27.20;73.00
12481;DHT22;6305;48.398;11.762;2023-09-30T10:18:06;29.90;61.00
12481;DHT22;6305;48.398;11.762;2023-09-30T10:20:34;31.90;53.90
12481;DHT22;6305;48.398;11.762;2023-09-30T10:23:22;32.90;50.20
12481;DHT22;6305;48.398;11.762;2023-09-30T10:25:53;33.50;47.00
12481;DHT22;6305;48.398;11.762;2023-09-30T10:28:34;32.50;45.60
12481;DHT22;6305;48.398;11.762;2023-09-30T10:31:08;31.60;46.80
12481;DHT22;6305;48.398;11.762;2023-09-30T10:33:36;31.20;47.60
12481;DHT22;6305;48.398;11.762;2023-09-30T10:36:05;31.80;48.00
12481;DHT22;6305;48.398;11.762;2023-09-30T10:38:39;32.70;45.00
12481;DHT22;6305;48.398;11.762;2023-09-30T10:41:52;33.70;44.80
12481;DHT22;6305;48.398;11.762;2023-09-30T10:44:33;33.20;43.30
12481;DHT22;6305;48.398;11.762;2023-09-30T10:47:00;31.60;44.20
12481;DHT22;6305;48.398;11.762;2023-09-30T10:49:47;29.30;47.90
12481;DHT22;6305;48.398;11.762;2023-09-30T10:52:22;29.40;50.10
12481;DHT22;6305;48.398;11.762;2023-09-30T10:54:50;30.20;49.20
12481;DHT22;6305;48.398;11.762;2023-09-30T10:57:27;31.10;47.80
12481;DHT22;6305;48.398;11.762;2023-09-30T11:00:07;30.90;46.60
12481;DHT22;6305;48.398;11.762;2023-09-30T11:02:48;31.10;46.00
12481;DHT22;6305;48.398;11.762;2023-09-30T11:05:15;31.30;45.60
12481;DHT22;6305;48.398;11.762;2023-09-30T11:07:46;30.30;45.80
12481;DHT22;6305;48.398;11.762;2023-09-30T11:10:16;30.40;47.50
12481;DHT22;6305;48.398;11.762;2023-09-30T11:12:55;32.00;46.10
12481;DHT22;6305;48.398;11.762;2023-09-30T11:15:23;33.70;43.60
12481;DHT22;6305;48.398;11.762;2023-09-30T11:17:53;33.70;40.40
12481;DHT22;6305;48.398;11.762;2023-09-30T11:20:21;31.90;42.10
12481;DHT22;6305;48.398;11.762;2023-09-30T11:22:50;29.90;44.90
12481;DHT22;6305;48.398;11.762;2023-09-30T11:25:18;29.00;47.60
12481;DHT22;6305;48.398;11.762;2023-09-30T11:27:45;28.10;49.40
12481;DHT22;6305;48.398;11.762;2023-09-30T11:30:14;26.80;51.50
12481;DHT22;6305;48.398;11.762;2023-09-30T11:32:41;26.00;53.80
12481;DHT22;6305;48.398;11.762;2023-09-30T11:35:09;25.50;55.40
12481;DHT22;6305;48.398;11.762;2023-09-30T11:37:37;26.60;56.10
12481;DHT22;6305;48.398;11.762;2023-09-30T11:40:13;27.30;53.10
12481;DHT22;6305;48.398;11.762;2023-09-30T11:42:40;27.40;52.40
12481;DHT22;6305;48.398;11.762;2023-09-30T11:45:22;26.80;53.40
12481;DHT22;6305;48.398;11.762;2023-09-30T11:47:49;26.50;55.00
12481;DHT22;6305;48.398;11.762;2023-09-30T11:50:16;26.50;55.70
12481;DHT22;6305;48.398;11.762;2023-09-30T11:52:44;28.10;52.10
12481;DHT22;6305;48.398;11.762;2023-09-30T11:55:12;29.40;50.00
12481;DHT22;6305;48.398;11.762;2023-09-30T11:57:39;29.40;47.60
12481;DHT22;6305;48.398;11.762;2023-09-30T12:00:09;28.90;46.40
12481;DHT22;6305;48.398;11.762;2023-09-30T12:02:40;27.90;48.20
12481;DHT22;6305;48.398;11.762;2023-09-30T12:05:08;27.90;49.00
12481;DHT22;6305;48.398;11.762;2023-09-30T12:07:37;27.50;48.90
12481;DHT22;6305;48.398;11.762;2023-09-30T12:10:07;26.90;50.60
12481;DHT22;6305;48.398;11.762;2023-09-30T12:12:35;26.60;50.70
12481;DHT22;6305;48.398;11.762;2023-09-30T12:15:03;27.50;51.60
12481;DHT22;6305;48.398;11.762;2023-09-30T12:17:30;29.00;48.90
12481;DHT22;6305;48.398;11.762;2023-09-30T12:19:58;30.20;46.50
12481;DHT22;6305;48.398;11.762;2023-09-30T12:22:25;31.60;43.80
12481;DHT22;6305;48.398;11.762;2023-09-30T12:24:53;32.20;42.80
12481;DHT22;6305;48.398;11.762;2023-09-30T12:27:20;33.30;40.90
12481;DHT22;6305;48.398;11.762;2023-09-30T12:29:47;34.50;38.90
12481;DHT22;6305;48.398;11.762;2023-09-30T12:32:14;34.90;38.00
12481;DHT22;6305;48.398;11.762;2023-09-30T12:34:41;36.00;36.20
12481;DHT22;6305;48.398;11.762;2023-09-30T12:37:09;36.30;34.60
12481;DHT22;6305;48.398;11.762;2023-09-30T12:39:36;35.40;33.90
12481;DHT22;6305;48.398;11.762;2023-09-30T12:42:03;33.50;36.10
12481;DHT22;6305;48.398;11.762;2023-09-30T12:44:34;31.70;39.50
12481;DHT22;6305;48.398;11.762;2023-09-30T12:47:01;30.10;41.90
12481;DHT22;6305;48.398;11.762;2023-09-30T12:49:29;28.70;44.00
12481;DHT22;6305;48.398;11.762;2023-09-30T12:51:57;27.80;46.10
12481;DHT22;6305;48.398;11.762;2023-09-30T12:54:26;26.90;48.80
12481;DHT22;6305;48.398;11.762;2023-09-30T12:56:53;26.20;50.40
12481;DHT22;6305;48.398;11.762;2023-09-30T12:59:21;26.40;53.40
12481;DHT22;6305;48.398;11.762;2023-09-30T13:01:51;27.70;49.70
12481;DHT22;6305;48.398;11.762;2023-09-30T13:04:19;29.50;46.70
12481;DHT22;6305;48.398;11.762;2023-09-30T13:06:46;31.20;44.00
12481;DHT22;6305;48.398;11.762;2023-09-30T13:09:14;32.10;41.00
12481;DHT22;6305;48.398;11.762;2023-09-30T13:11:43;32.90;39.90
12481;DHT22;6305;48.398;11.762;2023-09-30T13:14:10;33.30;38.70
12481;DHT22;6305;48.398;11.762;2023-09-30T13:16:36;33.10;38.70
12481;DHT22;6305;48.398;11.762;2023-09-30T13:19:04;33.00;38.70
12481;DHT22;6305;48.398;11.762;2023-09-30T13:21:31;33.30;38.40
12481;DHT22;6305;48.398;11.762;2023-09-30T13:23:58;32.70;38.70
12481;DHT22;6305;48.398;11.762;2023-09-30T13:26:25;31.60;40.60
12481;DHT22;6305;48.398;11.762;2023-09-30T13:28:53;30.10;42.30
12481;DHT22;6305;48.398;11.762;2023-09-30T13:31:20;28.40;45.10
12481;DHT22;6305;48.398;11.762;2023-09-30T13:33:47;27.40;47.50
12481;DHT22;6305;48.398;11.762;2023-09-30T13:36:14;27.10;48.80
12481;DHT22;6305;48.398;11.762;2023-09-30T13:38:41;27.00;49.30
12481;DHT22;6305;48.398;11.762;2023-09-30T13:41:08;26.60;50.40
12481;DHT22;6305;48.398;11.762;2023-09-30T13:43:35;26.40;51.30
12481;DHT22;6305;48.398;11.762;2023-09-30T13:46:04;26.60;51.00
12481;DHT22;6305;48.398;11.762;2023-09-30T13:48:32;26.90;50.40
12481;DHT22;6305;48.398;11.762;2023-09-30T13:51:04;26.40;49.30
12481;DHT22;6305;48.398;11.762;2023-09-30T13:53:31;26.10;51.40
12481;DHT22;6305;48.398;11.762;2023-09-30T13:55:58;26.00;51.50
12481;DHT22;6305;48.398;11.762;2023-09-30T13:58:25;25.80;51.90
12481;DHT22;6305;48.398;11.762;2023-09-30T14:00:52;25.60;52.00
12481;DHT22;6305;48.398;11.762;2023-09-30T14:03:20;25.40;52.80
12481;DHT22;6305;48.398;11.762;2023-09-30T14:05:47;25.70;52.80
12481;DHT22;6305;48.398;11.762;2023-09-30T14:08:14;26.30;51.40
12481;DHT22;6305;48.398;11.762;2023-09-30T14:10:42;27.20;50.00
12481;DHT22;6305;48.398;11.762;2023-09-30T14:13:10;28.30;48.80
12481;DHT22;6305;48.398;11.762;2023-09-30T14:15:37;28.80;46.80
12481;DHT22;6305;48.398;11.762;2023-09-30T14:18:04;29.50;46.10
12481;DHT22;6305;48.398;11.762;2023-09-30T14:20:33;30.20;44.50
12481;DHT22;6305;48.398;11.762;2023-09-30T14:23:01;30.40;42.50
12481;DHT22;6305;48.398;11.762;2023-09-30T14:25:28;29.80;42.70
12481;DHT22;6305;48.398;11.762;2023-09-30T14:27:55;29.20;43.90
12481;DHT22;6305;48.398;11.762;2023-09-30T14:30:25;29.20;44.80
12481;DHT22;6305;48.398;11.762;2023-09-30T14:32:52;29.30;44.40
12481;DHT22;6305;48.398;11.762;2023-09-30T14:35:19;29.30;42.90
12481;DHT22;6305;48.398;11.762;2023-09-30T14:37:48;29.00;44.00
12481;DHT22;6305;48.398;11.762;2023-09-30T14:40:15;28.30;44.40
12481;DHT22;6305;48.398;11.762;2023-09-30T14:42:42;27.20;47.30
12481;DHT22;6305;48.398;11.762;2023-09-30T14:45:09;26.40;48.30
12481;DHT22;6305;48.398;11.762;2023-09-30T14:47:37;25.70;50.00
12481;DHT22;6305;48.398;11.762;2023-09-30T14:50:06;25.30;51.00
12481;DHT22;6305;48.398;11.762;2023-09-30T14:52:35;24.80;51.70
12481;DHT22;6305;48.398;11.762;2023-09-30T14:55:03;24.30;53.10
12481;DHT22;6305;48.398;11.762;2023-09-30T14:57:31;24.10;54.60
12481;DHT22;6305;48.398;11.762;2023-09-30T14:59:58;23.90;55.10
12481;DHT22;6305;48.398;11.762;2023-09-30T15:02:25;23.50;55.20
12481;DHT22;6305;48.398;11.762;2023-09-30T15:04:52;23.10;55.90
12481;DHT22;6305;48.398;11.762;2023-09-30T15:07:20;22.80;57.50
12481;DHT22;6305;48.398;11.762;2023-09-30T15:09:47;22.70;57.70
12481;DHT22;6305;48.398;11.762;2023-09-30T15:12:16;22.40;58.80
12481;DHT22;6305;48.398;11.762;2023-09-30T15:14:43;22.30;60.30
12481;DHT22;6305;48.398;11.762;2023-09-30T15:17:11;22.00;61.50
12481;DHT22;6305;48.398;11.762;2023-09-30T15:19:37;21.90;62.40
12481;DHT22;6305;48.398;11.762;2023-09-30T15:22:04;21.70;64.40
12481;DHT22;6305;48.398;11.762;2023-09-30T15:24:31;21.50;67.10
12481;DHT22;6305;48.398;11.762;2023-09-30T15:26:59;21.30;68.50
12481;DHT22;6305;48.398;11.762;2023-09-30T15:29:28;21.10;69.10
12481;DHT22;6305;48.398;11.762;2023-09-30T15:31:55;20.80;71.40
12481;DHT22;6305;48.398;11.762;2023-09-30T15:34:22;20.70;75.30
12481;DHT22;6305;48.398;11.762;2023-09-30T15:36:49;20.70;79.40
12481;DHT22;6305;48.398;11.762;2023-09-30T15:39:16;20.60;80.70